createdAt,value
2019-02-12T00:00:26.134Z,86.00
2019-02-12T00:02:54.874Z,85.60
2019-02-12T00:05:23.783Z,85.90
2019-02-12T00:07:52.734Z,85.70
2019-02-12T00:10:21.443Z,85.70
2019-02-12T00:12:50.178Z,85.80
2019-02-12T00:15:18.884Z,85.70
2019-02-12T00:17:47.533Z,85.40
2019-02-12T00:20:16.189Z,85.60
2019-02-12T00:22:45.321Z,85.60
2019-02-12T00:25:14.040Z,85.80
2019-02-12T00:27:43.635Z,85.80
2019-02-12T00:30:12.570Z,86.40
2019-02-12T00:32:41.263Z,86.80
2019-02-12T00:35:09.920Z,87.20
2019-02-12T00:37:38.611Z,87.50
2019-02-12T00:40:07.674Z,88.00
2019-02-12T00:42:36.370Z,88.40
2019-02-12T00:45:05.541Z,88.50
2019-02-12T00:47:36.582Z,88.80
2019-02-12T00:50:05.810Z,88.80
2019-02-12T00:52:36.270Z,89.30
2019-02-12T00:55:06.361Z,89.30
2019-02-12T00:57:35.275Z,89.30
2019-02-12T01:00:05.108Z,89.50
2019-02-12T01:02:33.978Z,90.00
2019-02-12T01:05:04.361Z,90.20
2019-02-12T01:07:33.264Z,90.50
2019-02-12T01:10:02.232Z,90.70
2019-02-12T01:12:31.636Z,90.70
2019-02-12T01:15:00.329Z,90.90
2019-02-12T01:17:29.223Z,91.10
2019-02-12T01:19:57.903Z,91.10
2019-02-12T01:22:26.591Z,91.10
2019-02-12T01:24:55.305Z,91.20
2019-02-12T01:27:26.385Z,91.40
2019-02-12T01:29:55.069Z,91.30
2019-02-12T01:32:24.175Z,91.40
2019-02-12T01:34:53.119Z,91.50
2019-02-12T01:37:22.415Z,91.50
2019-02-12T01:39:51.315Z,91.20
2019-02-12T01:42:20.351Z,91.00
2019-02-12T01:44:49.402Z,91.00
2019-02-12T01:47:19.715Z,90.80
2019-02-12T01:49:48.559Z,90.60
2019-02-12T01:52:17.257Z,90.50
2019-02-12T01:54:46.249Z,90.40
2019-02-12T01:57:15.006Z,90.50
2019-02-12T01:59:43.958Z,90.40
2019-02-12T02:02:13.126Z,90.30
2019-02-12T02:04:41.828Z,90.20
2019-02-12T02:07:12.515Z,90.10
2019-02-12T02:09:41.189Z,90.10
2019-02-12T02:12:13.342Z,89.70
2019-02-12T02:14:42.276Z,89.20
2019-02-12T02:17:11.413Z,89.10
2019-02-12T02:19:40.888Z,88.60
2019-02-12T02:22:10.794Z,88.30
2019-02-12T02:24:40.022Z,88.10
2019-02-12T02:27:08.742Z,87.60
2019-02-12T02:29:37.900Z,87.80
2019-02-12T02:32:06.834Z,87.50
2019-02-12T02:34:36.155Z,87.10
2019-02-12T02:37:05.130Z,87.20
2019-02-12T02:39:33.834Z,87.50
2019-02-12T02:42:02.809Z,87.50
2019-02-12T02:44:31.587Z,87.80
2019-02-12T02:47:00.259Z,87.80
2019-02-12T02:49:28.906Z,88.10
2019-02-12T02:51:57.582Z,88.60
2019-02-12T02:54:26.258Z,89.00
2019-02-12T02:56:55.011Z,89.30
2019-02-12T02:59:23.957Z,89.70
2019-02-12T03:01:52.921Z,89.60
2019-02-12T03:04:22.434Z,90.00
2019-02-12T03:06:51.236Z,90.10
2019-02-12T03:09:20.127Z,90.10
2019-02-12T03:11:49.349Z,90.10
2019-02-12T03:14:18.282Z,90.20
2019-02-12T03:16:46.944Z,90.50
2019-02-12T03:19:15.883Z,90.20
2019-02-12T03:21:44.818Z,90.40
2019-02-12T03:24:13.616Z,90.90
2019-02-12T03:26:42.602Z,90.90
2019-02-12T03:29:11.358Z,91.00
2019-02-12T03:31:40.244Z,91.30
2019-02-12T03:34:09.656Z,91.40
2019-02-12T03:36:39.364Z,91.60
2019-02-12T03:39:08.047Z,91.80
2019-02-12T03:41:37.178Z,92.10
2019-02-12T03:44:06.102Z,92.00
2019-02-12T03:46:34.790Z,91.90
2019-02-12T03:49:03.473Z,92.00
2019-02-12T03:51:32.163Z,92.00
2019-02-12T03:54:01.050Z,92.00
2019-02-12T03:56:29.941Z,92.10
2019-02-12T03:58:58.640Z,92.20
2019-02-12T04:01:28.508Z,92.20
2019-02-12T04:03:57.272Z,92.30
2019-02-12T04:06:26.275Z,92.30
2019-02-12T04:08:55.180Z,92.40
2019-02-12T04:11:24.376Z,92.70
2019-02-12T04:13:53.468Z,92.60
2019-02-12T04:16:22.346Z,92.60
2019-02-12T04:18:51.270Z,92.60
2019-02-12T04:21:20.215Z,92.60
2019-02-12T04:23:49.166Z,92.50
2019-02-12T04:26:18.598Z,92.60
2019-02-12T04:28:47.541Z,92.60
2019-02-12T04:31:16.235Z,92.50
2019-02-12T04:33:44.964Z,92.50
2019-02-12T04:36:14.314Z,92.50
2019-02-12T04:38:43.271Z,92.50
2019-02-12T04:41:12.311Z,92.60
2019-02-12T04:43:41.256Z,92.60
2019-02-12T04:46:09.933Z,92.70
2019-02-12T04:48:39.052Z,92.60
2019-02-12T04:51:07.753Z,92.60
2019-02-12T04:53:36.446Z,92.60
2019-02-12T04:56:05.198Z,92.50
2019-02-12T04:58:33.974Z,92.60
2019-02-12T05:01:02.704Z,92.60
2019-02-12T05:03:31.844Z,92.60
2019-02-12T05:06:00.518Z,92.70
2019-02-12T05:08:58.466Z,92.60
2019-02-12T05:11:27.150Z,92.70
2019-02-12T05:13:56.072Z,92.70
2019-02-12T05:16:25.059Z,93.30
2019-02-12T05:18:53.746Z,93.00
2019-02-12T05:21:22.531Z,92.80
2019-02-12T05:23:51.255Z,93.10
2019-02-12T05:26:20.026Z,93.10
2019-02-12T05:28:48.767Z,93.30
2019-02-12T05:31:17.921Z,93.20
2019-02-12T05:33:46.854Z,93.30
2019-02-12T05:36:15.534Z,93.40
2019-02-12T05:38:44.214Z,92.90
2019-02-12T05:41:13.430Z,93.10
2019-02-12T05:43:42.787Z,93.10
2019-02-12T05:46:11.713Z,93.00
2019-02-12T05:48:40.394Z,93.00
2019-02-12T05:51:09.348Z,93.00
2019-02-12T05:53:38.089Z,93.00
2019-02-12T05:56:07.266Z,93.10
2019-02-12T05:58:36.190Z,93.20
2019-02-12T06:01:04.995Z,93.10
2019-02-12T06:03:33.745Z,93.20
2019-02-12T06:06:03.016Z,93.30
2019-02-12T06:08:31.839Z,93.50
2019-02-12T06:11:00.836Z,93.60
2019-02-12T06:13:29.875Z,93.80
2019-02-12T06:15:59.062Z,93.90
2019-02-12T06:18:27.799Z,93.90
2019-02-12T06:20:56.494Z,94.10
2019-02-12T06:23:25.168Z,94.10
2019-02-12T06:25:54.387Z,94.10
2019-02-12T06:28:23.160Z,94.00
2019-02-12T06:30:52.070Z,94.00
2019-02-12T06:33:21.220Z,94.00
2019-02-12T06:35:50.234Z,94.00
2019-02-12T06:38:18.922Z,93.80
2019-02-12T06:40:48.144Z,93.70
2019-02-12T06:43:17.110Z,93.50
2019-02-12T06:45:45.879Z,93.20
2019-02-12T06:48:14.628Z,93.10
2019-02-12T06:50:43.303Z,92.90
2019-02-12T06:53:12.871Z,92.80
2019-02-12T06:55:41.994Z,92.60
2019-02-12T06:58:10.690Z,92.40
2019-02-12T07:00:39.451Z,92.20
2019-02-12T07:03:12.642Z,92.20
2019-02-12T07:05:50.435Z,92.10
2019-02-12T07:08:34.394Z,91.90
2019-02-12T07:11:29.918Z,91.80
2019-02-12T07:14:19.254Z,91.60
2019-02-12T07:17:17.600Z,91.50
2019-02-12T07:20:16.438Z,91.40
2019-02-12T07:22:56.716Z,91.30
2019-02-12T07:26:03.301Z,91.20
2019-02-12T07:29:00.670Z,91.00
2019-02-12T07:32:10.522Z,90.80
2019-02-12T07:35:16.908Z,90.60
2019-02-12T07:38:30.326Z,90.60
2019-02-12T07:41:07.805Z,90.30
2019-02-12T07:44:11.321Z,90.20
2019-02-12T07:47:15.267Z,90.00
2019-02-12T07:50:18.713Z,89.50
2019-02-12T07:53:30.614Z,89.40
2019-02-12T07:56:36.974Z,88.90
2019-02-12T07:59:45.576Z,88.90
2019-02-12T08:02:50.031Z,88.60
2019-02-12T08:05:48.122Z,88.10
2019-02-12T08:09:10.242Z,87.60
2019-02-12T08:11:51.033Z,87.10
2019-02-12T08:14:29.644Z,86.90
2019-02-12T08:17:46.309Z,87.00
2019-02-12T08:20:52.787Z,86.40
2019-02-12T08:23:59.682Z,86.80
2019-02-12T08:26:57.379Z,86.80
2019-02-12T08:30:01.865Z,86.70
2019-02-12T08:33:06.351Z,87.20
2019-02-12T08:35:57.734Z,86.20
2019-02-12T08:38:51.335Z,86.00
2019-02-12T08:41:57.067Z,85.00
2019-02-12T08:44:59.626Z,80.50
2019-02-12T08:47:56.571Z,77.90
2019-02-12T08:50:48.875Z,77.60
2019-02-12T08:53:30.490Z,75.80
2019-02-12T08:57:07.556Z,69.90
2019-02-12T09:00:07.469Z,66.60
2019-02-12T09:03:27.819Z,66.60
2019-02-12T09:06:41.470Z,68.00
2019-02-12T09:09:45.847Z,70.00
2019-02-12T09:12:49.885Z,68.90
2019-02-12T09:15:29.434Z,68.60
2019-02-12T09:18:24.627Z,71.40
2019-02-12T09:21:20.569Z,74.10
2019-02-12T09:24:20.934Z,73.20
2019-02-12T09:27:15.166Z,67.60
2019-02-12T09:30:22.934Z,67.10
2019-02-12T09:33:15.822Z,62.80
2019-02-12T09:35:52.875Z,57.70
2019-02-12T09:38:48.982Z,56.40
2019-02-12T09:41:35.280Z,59.20
2019-02-12T09:45:06.479Z,63.30
2019-02-12T09:48:09.273Z,67.30
2019-02-12T09:50:55.134Z,69.30
2019-02-12T09:54:08.861Z,68.00
2019-02-12T09:57:15.039Z,66.00
2019-02-12T10:00:04.984Z,67.00
2019-02-12T10:03:09.042Z,68.00
2019-02-12T10:06:21.463Z,68.20
2019-02-12T10:09:29.462Z,63.10
2019-02-12T10:12:12.216Z,57.00
2019-02-12T10:15:02.817Z,59.70
2019-02-12T10:17:53.003Z,60.90
2019-02-12T10:20:35.986Z,61.40
2019-02-12T10:23:50.819Z,61.70
2019-02-12T10:26:20.258Z,62.70
2019-02-12T10:29:14.918Z,65.10
2019-02-12T10:31:43.219Z,66.40
2019-02-12T10:34:12.189Z,68.00
2019-02-12T10:36:41.056Z,67.80
2019-02-12T10:39:11.566Z,70.20
2019-02-12T10:41:40.550Z,63.90
2019-02-12T10:44:09.261Z,58.70
2019-02-12T10:46:38.209Z,56.20
2019-02-12T10:49:06.927Z,51.30
2019-02-12T10:51:35.959Z,52.40
2019-02-12T10:54:05.405Z,55.20
2019-02-12T10:56:34.110Z,57.10
2019-02-12T10:59:02.795Z,56.70
2019-02-12T11:01:31.550Z,54.30
2019-02-12T11:04:00.272Z,53.50
2019-02-12T11:06:28.944Z,53.50
2019-02-12T11:08:58.198Z,54.30
2019-02-12T11:11:26.978Z,54.40
2019-02-12T11:13:55.662Z,56.80
2019-02-12T11:16:24.630Z,59.10
2019-02-12T11:18:53.402Z,59.10
2019-02-12T11:21:22.312Z,60.40
2019-02-12T11:23:51.231Z,61.90
2019-02-12T11:26:20.003Z,62.90
2019-02-12T11:28:48.943Z,64.00
2019-02-12T11:31:17.884Z,64.20
2019-02-12T11:33:46.554Z,63.00
2019-02-12T11:36:15.235Z,61.10
2019-02-12T11:38:43.965Z,59.30
2019-02-12T11:41:12.770Z,60.00
2019-02-12T11:43:41.871Z,61.60
2019-02-12T11:46:10.630Z,63.50
2019-02-12T11:48:39.314Z,65.10
2019-02-12T11:51:08.002Z,65.50
2019-02-12T11:53:36.962Z,63.90
2019-02-12T11:56:06.843Z,65.00
2019-02-12T11:58:36.759Z,65.60
2019-02-12T12:01:08.621Z,66.30
2019-02-12T12:03:37.515Z,66.00
2019-02-12T12:06:06.246Z,65.70
2019-02-12T12:08:35.207Z,66.60
2019-02-12T12:11:04.116Z,66.60
2019-02-12T12:13:32.802Z,66.40
2019-02-12T12:16:01.482Z,65.60
2019-02-12T12:18:30.398Z,66.90
2019-02-12T12:20:59.074Z,66.30
2019-02-12T12:23:27.779Z,66.40
2019-02-12T12:25:56.506Z,66.20
2019-02-12T12:28:25.456Z,66.50
2019-02-12T12:30:54.376Z,65.60
2019-02-12T12:33:23.041Z,65.00
2019-02-12T12:35:51.954Z,64.30
2019-02-12T12:38:20.898Z,63.80
2019-02-12T12:40:49.558Z,64.60
2019-02-12T12:43:18.255Z,65.70
2019-02-12T12:45:46.972Z,66.20
2019-02-12T12:48:15.998Z,66.30
2019-02-12T12:50:44.934Z,66.70
2019-02-12T12:53:14.626Z,63.90
2019-02-12T12:55:43.525Z,63.20
2019-02-12T12:58:12.977Z,64.20
2019-02-12T13:00:42.631Z,63.10
2019-02-12T13:03:13.520Z,62.90
2019-02-12T13:05:42.519Z,62.30
2019-02-12T13:08:11.547Z,63.00
2019-02-12T13:10:40.589Z,61.90
2019-02-12T13:13:09.389Z,62.30
2019-02-12T13:15:38.089Z,62.10
2019-02-12T13:18:06.847Z,58.50
2019-02-12T13:20:35.541Z,57.70
2019-02-12T13:23:05.230Z,59.20
2019-02-12T13:25:33.899Z,56.50
2019-02-12T13:28:02.681Z,56.40
2019-02-12T13:30:31.366Z,56.10
2019-02-12T13:33:03.174Z,56.90
2019-02-12T13:35:32.081Z,55.80
2019-02-12T13:38:02.701Z,55.20
2019-02-12T13:40:31.382Z,55.20
2019-02-12T13:43:00.088Z,54.90
2019-02-12T13:45:29.361Z,55.60
2019-02-12T13:47:58.151Z,56.70
2019-02-12T13:50:27.134Z,57.40
2019-02-12T13:52:56.086Z,59.00
2019-02-12T13:55:24.927Z,57.70
2019-02-12T13:57:53.770Z,58.20
2019-02-12T14:00:23.954Z,58.00
2019-02-12T14:02:52.650Z,58.50
2019-02-12T14:05:21.477Z,58.40
2019-02-12T14:07:50.192Z,59.00
2019-02-12T14:10:18.851Z,59.60
2019-02-12T14:12:47.515Z,58.50
2019-02-12T14:15:16.220Z,58.50
2019-02-12T14:17:44.890Z,58.50
2019-02-12T14:20:14.100Z,58.20
2019-02-12T14:22:42.742Z,57.90
2019-02-12T14:25:11.782Z,58.90
2019-02-12T14:27:40.785Z,58.20
2019-02-12T14:30:11.499Z,58.10
2019-02-12T14:32:40.727Z,58.40
2019-02-12T14:35:10.192Z,58.50
2019-02-12T14:37:38.944Z,59.40
2019-02-12T14:40:08.995Z,60.10
2019-02-12T14:42:38.065Z,60.00
2019-02-12T14:45:08.479Z,60.20
2019-02-12T14:47:38.299Z,60.60
2019-02-12T14:50:08.434Z,60.10
2019-02-12T14:52:37.318Z,60.70
2019-02-12T14:55:06.118Z,60.50
2019-02-12T14:57:35.314Z,60.30
2019-02-12T15:00:04.360Z,60.60
2019-02-12T15:02:33.178Z,61.00
2019-02-12T15:05:02.157Z,61.80
2019-02-12T15:07:31.103Z,61.70
2019-02-12T15:09:59.766Z,62.00
2019-02-12T15:12:28.681Z,62.80
2019-02-12T15:14:57.362Z,63.00
2019-02-12T15:17:26.074Z,63.60
2019-02-12T15:19:55.140Z,63.20
2019-02-12T15:22:26.055Z,63.70
2019-02-12T15:24:54.776Z,63.90
2019-02-12T15:27:24.006Z,64.40
2019-02-12T15:29:53.528Z,64.50
2019-02-12T15:32:22.699Z,64.80
2019-02-12T15:34:52.478Z,64.50
2019-02-12T15:37:22.253Z,65.00
2019-02-12T15:39:50.908Z,65.10
2019-02-12T15:42:24.450Z,65.40
2019-02-12T15:44:53.341Z,65.70
2019-02-12T15:47:23.545Z,65.80
2019-02-12T15:49:52.681Z,66.10
2019-02-12T15:52:21.569Z,66.80
2019-02-12T15:54:50.218Z,66.70
2019-02-12T15:57:18.957Z,66.70
2019-02-12T15:59:49.735Z,67.20
2019-02-12T16:02:21.254Z,67.30
2019-02-12T16:04:50.225Z,67.80
2019-02-12T16:07:20.406Z,67.50
2019-02-12T16:09:49.942Z,67.90
2019-02-12T16:12:20.157Z,68.30
2019-02-12T16:14:48.818Z,69.30
2019-02-12T16:17:17.538Z,68.90
2019-02-12T16:19:47.016Z,69.10
2019-02-12T16:22:21.858Z,69.50
2019-02-12T16:24:50.530Z,70.00
2019-02-12T16:27:21.487Z,70.30
2019-02-12T16:29:49.608Z,70.40
2019-02-12T16:32:21.037Z,69.90
2019-02-12T16:34:49.749Z,70.90
2019-02-12T16:37:18.507Z,70.90
2019-02-12T16:39:47.403Z,70.80
2019-02-12T16:42:18.993Z,71.50
2019-02-12T16:44:47.690Z,71.40
2019-02-12T16:47:16.657Z,71.50
2019-02-12T16:49:45.694Z,71.70
2019-02-12T16:52:20.663Z,71.80
2019-02-12T16:54:45.236Z,72.30
2019-02-12T16:57:13.978Z,72.40
2019-02-12T16:59:42.628Z,72.50
2019-02-12T17:02:11.526Z,73.20
2019-02-12T17:04:40.198Z,72.90
2019-02-12T17:07:09.150Z,73.20
2019-02-12T17:09:38.067Z,72.90
2019-02-12T17:12:08.446Z,73.30
2019-02-12T17:14:37.350Z,73.00
2019-02-12T17:17:06.283Z,73.00
2019-02-12T17:19:35.032Z,73.20
2019-02-12T17:22:03.874Z,73.40
2019-02-12T17:24:32.529Z,73.70
2019-02-12T17:27:01.201Z,73.50
2019-02-12T17:29:30.236Z,73.50
2019-02-12T17:31:59.141Z,73.80
2019-02-12T17:34:27.874Z,74.00
2019-02-12T17:36:56.763Z,74.40
2019-02-12T17:39:25.967Z,74.40
2019-02-12T17:41:54.659Z,74.80
2019-02-12T17:44:23.379Z,75.00
2019-02-12T17:46:52.138Z,75.30
2019-02-12T17:49:22.313Z,75.40
2019-02-12T17:51:51.311Z,75.70
2019-02-12T17:54:23.729Z,75.90
2019-02-12T17:56:52.645Z,76.00
2019-02-12T17:59:21.621Z,76.40
2019-02-12T18:01:50.263Z,76.10
2019-02-12T18:04:18.974Z,76.40
2019-02-12T18:06:47.888Z,76.50
2019-02-12T18:09:19.019Z,76.60
2019-02-12T18:11:47.799Z,77.10
2019-02-12T18:14:16.485Z,77.00
2019-02-12T18:16:45.133Z,77.20
2019-02-12T18:19:13.833Z,77.20
2019-02-12T18:21:42.780Z,77.20
2019-02-12T18:24:11.754Z,77.40
2019-02-12T18:26:40.711Z,77.70
2019-02-12T18:29:09.381Z,77.10
2019-02-12T18:31:38.061Z,77.40
2019-02-12T18:34:06.732Z,77.30
2019-02-12T18:36:35.952Z,77.10
2019-02-12T18:39:06.498Z,77.50
2019-02-12T18:41:35.374Z,77.70
2019-02-12T18:44:04.464Z,77.70
2019-02-12T18:46:33.460Z,77.80
2019-02-12T18:49:02.222Z,77.90
2019-02-12T18:51:30.930Z,78.20
2019-02-12T18:53:59.626Z,78.10
2019-02-12T18:56:28.366Z,78.10
2019-02-12T18:58:57.270Z,78.30
2019-02-12T19:01:25.960Z,78.50
2019-02-12T19:03:54.888Z,78.70
2019-02-12T19:06:23.692Z,78.30
2019-02-12T19:08:52.376Z,78.80
2019-02-12T19:11:21.315Z,78.80
2019-02-12T19:13:50.110Z,78.70
2019-02-12T19:16:19.106Z,79.00
2019-02-12T19:18:47.831Z,78.90
2019-02-12T19:21:16.886Z,78.70
2019-02-12T19:23:46.146Z,78.60
2019-02-12T19:26:15.070Z,78.20
2019-02-12T19:28:43.741Z,78.20
2019-02-12T19:31:12.394Z,77.60
2019-02-12T19:33:41.395Z,78.20
2019-02-12T19:36:10.499Z,77.60
2019-02-12T19:38:39.306Z,77.80
2019-02-12T19:41:08.789Z,77.80
2019-02-12T19:43:37.814Z,77.70
2019-02-12T19:46:06.518Z,77.80
2019-02-12T19:48:35.221Z,78.10
2019-02-12T19:51:04.074Z,78.30
2019-02-12T19:53:32.979Z,78.50
2019-02-12T19:56:01.672Z,78.90
2019-02-12T19:58:30.577Z,79.30
2019-02-12T20:00:59.230Z,79.60
2019-02-12T20:03:31.245Z,80.00
2019-02-12T20:06:00.242Z,80.10
2019-02-12T20:08:28.926Z,80.20
2019-02-12T20:10:57.628Z,80.30
2019-02-12T20:13:27.019Z,80.60
2019-02-12T20:15:55.996Z,80.40
2019-02-12T20:18:25.035Z,80.30
2019-02-12T20:20:53.758Z,80.60
2019-02-12T20:23:22.710Z,80.50
2019-02-12T20:25:51.425Z,80.50
2019-02-12T20:28:22.792Z,80.70
2019-02-12T20:30:52.614Z,81.10
2019-02-12T20:33:21.498Z,81.20
2019-02-12T20:35:50.544Z,81.40
2019-02-12T20:38:21.925Z,81.50
2019-02-12T20:40:53.991Z,81.80
2019-02-12T20:43:29.462Z,82.50
2019-02-12T20:45:58.221Z,81.90
2019-02-12T20:48:27.001Z,82.00
2019-02-12T20:50:55.694Z,82.20
2019-02-12T20:53:24.578Z,82.30
2019-02-12T20:55:53.302Z,82.20
2019-02-12T20:58:21.966Z,82.00
2019-02-12T21:00:50.632Z,81.80
2019-02-12T21:03:19.352Z,81.70
2019-02-12T21:05:48.346Z,81.90
2019-02-12T21:08:17.326Z,81.80
2019-02-12T21:10:46.346Z,81.80
2019-02-12T21:13:15.474Z,82.00
2019-02-12T21:15:45.050Z,82.20
2019-02-12T21:18:13.827Z,82.50
2019-02-12T21:20:43.985Z,82.80
2019-02-12T21:23:12.661Z,82.90
2019-02-12T21:25:41.362Z,83.00
2019-02-12T21:28:10.107Z,83.40
2019-02-12T21:30:39.139Z,83.40
2019-02-12T21:33:07.928Z,83.60
2019-02-12T21:35:36.642Z,83.90
2019-02-12T21:38:07.016Z,84.20
2019-02-12T21:40:35.743Z,84.30
2019-02-12T21:43:04.559Z,84.70
2019-02-12T21:45:33.237Z,85.10
2019-02-12T21:48:02.010Z,85.40
2019-02-12T21:50:33.714Z,85.70
2019-02-12T21:53:06.962Z,85.80
2019-02-12T21:55:33.040Z,85.90
2019-02-12T21:58:01.715Z,86.00
2019-02-12T22:00:31.110Z,86.60
2019-02-12T22:03:00.222Z,86.00
2019-02-12T22:05:28.904Z,85.90
2019-02-12T22:07:57.798Z,85.60
2019-02-12T22:10:26.561Z,86.10
2019-02-12T22:12:55.217Z,85.60
2019-02-12T22:15:23.970Z,85.80
2019-02-12T22:17:53.135Z,86.10
2019-02-12T22:20:25.497Z,86.50
2019-02-12T22:22:54.241Z,86.50
2019-02-12T22:25:22.970Z,86.70
2019-02-12T22:27:51.639Z,86.70
2019-02-12T22:30:20.852Z,86.70
2019-02-12T22:32:49.583Z,86.80
2019-02-12T22:35:18.519Z,87.10
2019-02-12T22:37:47.487Z,87.10
2019-02-12T22:40:16.377Z,87.20
2019-02-12T22:42:45.340Z,87.40
2019-02-12T22:45:20.187Z,87.60
2019-02-12T22:47:50.246Z,88.00
2019-02-12T22:50:18.954Z,88.50
2019-02-12T22:52:47.929Z,89.00
2019-02-12T22:55:16.642Z,89.30
2019-02-12T22:57:49.357Z,89.90
2019-02-12T23:00:45.660Z,90.00
2019-02-12T23:03:14.490Z,90.20
2019-02-12T23:05:43.485Z,90.40
2019-02-12T23:08:12.331Z,90.50
2019-02-12T23:10:41.070Z,90.70
2019-02-12T23:13:10.234Z,90.80
2019-02-12T23:15:39.003Z,90.90
2019-02-12T23:18:07.670Z,90.90
2019-02-12T23:20:36.721Z,91.30
2019-02-12T23:23:05.536Z,91.10
2019-02-12T23:25:34.686Z,91.10
2019-02-12T23:28:03.647Z,91.10
2019-02-12T23:30:32.551Z,91.30
2019-02-12T23:33:01.219Z,91.40
2019-02-12T23:35:29.887Z,91.40
2019-02-12T23:37:58.590Z,91.40
2019-02-12T23:40:30.008Z,91.60
2019-02-12T23:42:58.695Z,91.70
2019-02-12T23:45:27.374Z,92.00
2019-02-12T23:47:56.033Z,92.30
2019-02-12T23:50:24.953Z,92.50
2019-02-12T23:52:53.676Z,92.80
2019-02-12T23:55:22.587Z,93.00
2019-02-12T23:57:51.244Z,93.20
